createdAt,value
2019-02-23T00:00:06.310Z,2.20
2019-02-23T00:02:55.887Z,2.20
2019-02-23T00:05:44.926Z,2.20
2019-02-23T00:08:33.607Z,2.20
2019-02-23T00:11:25.256Z,2.20
2019-02-23T00:14:15.090Z,2.10
2019-02-23T00:17:04.383Z,2.10
2019-02-23T00:19:52.741Z,2.00
2019-02-23T00:22:40.708Z,2.00
2019-02-23T00:25:29.028Z,2.00
2019-02-23T00:28:17.456Z,1.90
2019-02-23T00:31:05.825Z,1.90
2019-02-23T00:33:54.353Z,1.90
2019-02-23T00:36:42.212Z,1.90
2019-02-23T00:39:30.557Z,1.90
2019-02-23T00:42:18.725Z,1.90
2019-02-23T00:45:07.356Z,1.80
2019-02-23T00:47:55.581Z,1.80
2019-02-23T00:50:43.541Z,1.80
2019-02-23T00:53:31.859Z,1.70
2019-02-23T00:56:20.057Z,1.70
2019-02-23T00:59:07.936Z,1.70
2019-02-23T01:01:55.804Z,1.60
2019-02-23T01:04:44.317Z,1.60
2019-02-23T01:07:32.400Z,1.60
2019-02-23T01:10:20.993Z,1.50
2019-02-23T01:13:09.400Z,1.50
2019-02-23T01:15:58.594Z,1.50
2019-02-23T01:18:48.341Z,1.50
2019-02-23T01:21:37.408Z,1.40
2019-02-23T01:24:25.792Z,1.50
2019-02-23T01:27:14.112Z,1.40
2019-02-23T01:30:02.054Z,1.40
2019-02-23T01:32:50.398Z,1.40
2019-02-23T01:35:38.647Z,1.40
2019-02-23T01:38:26.824Z,1.40
2019-02-23T01:41:14.684Z,1.40
2019-02-23T01:44:03.272Z,1.40
2019-02-23T01:46:52.324Z,1.30
2019-02-23T01:49:40.251Z,1.30
2019-02-23T01:52:28.612Z,1.30
2019-02-23T01:55:17.150Z,1.30
2019-02-23T01:58:05.220Z,1.20
2019-02-23T02:00:53.384Z,1.20
2019-02-23T02:03:41.446Z,1.20
2019-02-23T02:06:29.809Z,1.20
2019-02-23T02:09:18.048Z,1.20
2019-02-23T02:12:07.857Z,1.20
2019-02-23T02:14:56.228Z,1.20
2019-02-23T02:17:44.397Z,1.20
2019-02-23T02:20:32.856Z,1.20
2019-02-23T02:23:21.128Z,1.20
2019-02-23T02:26:09.624Z,1.10
2019-02-23T02:28:57.826Z,1.10
2019-02-23T02:31:46.066Z,1.10
2019-02-23T02:34:34.763Z,1.10
2019-02-23T02:37:23.105Z,1.10
2019-02-23T02:40:11.051Z,1.10
2019-02-23T02:42:59.150Z,1.10
2019-02-23T02:45:47.647Z,1.00
2019-02-23T02:48:36.128Z,1.00
2019-02-23T02:51:24.849Z,1.00
2019-02-23T02:54:13.202Z,1.00
2019-02-23T02:57:01.500Z,0.90
2019-02-23T02:59:49.589Z,0.90
2019-02-23T03:02:37.353Z,0.90
2019-02-23T03:05:25.366Z,0.90
2019-02-23T03:08:13.632Z,0.80
2019-02-23T03:11:01.448Z,0.80
2019-02-23T03:13:49.362Z,0.80
2019-02-23T03:16:37.829Z,0.80
2019-02-23T03:19:25.712Z,0.80
2019-02-23T03:22:14.114Z,0.70
2019-02-23T03:25:02.202Z,0.80
2019-02-23T03:27:51.518Z,0.80
2019-02-23T03:30:40.890Z,0.70
2019-02-23T03:33:28.774Z,0.70
2019-02-23T03:36:17.615Z,0.70
2019-02-23T03:39:06.205Z,0.70
2019-02-23T03:41:54.701Z,0.70
2019-02-23T03:44:42.968Z,0.70
2019-02-23T03:47:31.094Z,0.70
2019-02-23T03:50:19.494Z,0.70
2019-02-23T03:53:08.006Z,0.80
2019-02-23T03:55:56.080Z,0.70
2019-02-23T03:58:44.484Z,0.70
2019-02-23T04:01:33.493Z,0.70
2019-02-23T04:04:29.594Z,0.70
2019-02-23T04:07:18.527Z,0.70
2019-02-23T04:10:09.272Z,0.80
2019-02-23T04:12:58.027Z,0.70
2019-02-23T04:15:46.751Z,0.70
2019-02-23T04:18:34.799Z,0.70
2019-02-23T04:21:23.317Z,0.80
2019-02-23T04:24:11.501Z,0.70
2019-02-23T04:26:59.939Z,0.70
2019-02-23T04:29:48.153Z,0.70
2019-02-23T04:32:36.428Z,0.60
2019-02-23T04:35:24.681Z,0.60
2019-02-23T04:38:12.804Z,0.70
2019-02-23T04:41:01.163Z,0.60
2019-02-23T04:43:49.032Z,0.70
2019-02-23T04:46:37.451Z,0.60
2019-02-23T04:49:26.101Z,0.60
2019-02-23T04:52:15.170Z,0.50
2019-02-23T04:55:03.033Z,0.50
2019-02-23T04:57:51.554Z,0.60
2019-02-23T05:00:39.968Z,0.50
2019-02-23T05:03:28.253Z,0.50
2019-02-23T05:06:16.394Z,0.50
2019-02-23T05:09:05.362Z,0.50
2019-02-23T05:11:53.381Z,0.50
2019-02-23T05:14:41.140Z,0.50
2019-02-23T05:17:29.264Z,0.50
2019-02-23T05:20:17.535Z,0.60
2019-02-23T05:23:06.234Z,0.50
2019-02-23T05:25:54.425Z,0.50
2019-02-23T05:28:42.661Z,0.50
2019-02-23T05:31:31.084Z,0.50
2019-02-23T05:34:18.913Z,0.50
2019-02-23T05:37:06.507Z,0.50
2019-02-23T05:39:54.936Z,0.40
2019-02-23T05:42:43.336Z,0.40
2019-02-23T05:45:31.572Z,0.30
2019-02-23T05:48:20.177Z,0.40
2019-02-23T05:51:08.467Z,0.40
2019-02-23T05:53:56.469Z,0.40
2019-02-23T05:56:44.306Z,0.50
2019-02-23T05:59:32.875Z,0.40
2019-02-23T06:02:20.889Z,0.40
2019-02-23T06:05:09.647Z,0.50
2019-02-23T06:07:58.093Z,0.40
2019-02-23T06:10:46.648Z,0.40
2019-02-23T06:13:34.472Z,0.40
2019-02-23T06:16:22.933Z,0.30
2019-02-23T06:19:11.044Z,0.40
2019-02-23T06:21:59.327Z,0.30
2019-02-23T06:24:47.776Z,0.30
2019-02-23T06:27:36.330Z,0.30
2019-02-23T06:30:24.604Z,0.30
2019-02-23T06:33:12.613Z,0.30
2019-02-23T06:36:00.937Z,0.30
2019-02-23T06:38:49.204Z,0.30
2019-02-23T06:41:37.512Z,0.30
2019-02-23T06:44:25.862Z,0.30
2019-02-23T06:47:14.257Z,0.50
2019-02-23T06:50:02.521Z,0.50
2019-02-23T06:52:50.844Z,0.60
2019-02-23T06:55:38.787Z,0.70
2019-02-23T06:58:27.287Z,0.60
2019-02-23T07:01:15.771Z,0.70
2019-02-23T07:04:03.832Z,0.60
2019-02-23T07:06:52.689Z,0.70
2019-02-23T07:09:41.111Z,0.80
2019-02-23T07:12:29.585Z,0.80
2019-02-23T07:15:17.784Z,0.90
2019-02-23T07:18:05.873Z,1.00
2019-02-23T07:20:53.913Z,1.00
2019-02-23T07:23:42.157Z,1.00
2019-02-23T07:26:31.019Z,1.00
2019-02-23T07:29:18.781Z,1.10
2019-02-23T07:32:07.097Z,1.20
2019-02-23T07:34:55.299Z,1.30
2019-02-23T07:37:43.550Z,1.40
2019-02-23T07:40:31.720Z,1.50
2019-02-23T07:43:19.873Z,1.60
2019-02-23T07:46:08.298Z,1.60
2019-02-23T07:48:57.094Z,1.70
2019-02-23T07:51:44.982Z,1.70
2019-02-23T07:54:33.556Z,1.80
2019-02-23T07:57:21.834Z,1.70
2019-02-23T08:00:14.081Z,1.70
2019-02-23T08:03:02.311Z,1.90
2019-02-23T08:05:50.600Z,2.00
2019-02-23T08:08:38.720Z,2.10
2019-02-23T08:11:26.396Z,2.10
2019-02-23T08:14:14.468Z,2.10
2019-02-23T08:17:02.812Z,2.20
2019-02-23T08:19:50.948Z,2.30
2019-02-23T08:22:39.648Z,2.30
2019-02-23T08:25:27.975Z,2.40
2019-02-23T08:28:16.408Z,2.60
2019-02-23T08:31:04.629Z,2.70
2019-02-23T08:33:52.996Z,2.90
2019-02-23T08:36:41.058Z,2.80
2019-02-23T08:39:29.286Z,2.80
2019-02-23T08:42:17.898Z,2.80
2019-02-23T08:45:08.344Z,2.80
2019-02-23T08:47:56.792Z,2.60
2019-02-23T08:50:46.093Z,2.50
2019-02-23T08:53:34.613Z,2.60
2019-02-23T08:56:22.742Z,2.70
2019-02-23T08:59:10.902Z,2.70
2019-02-23T09:01:59.046Z,2.70
2019-02-23T09:04:47.769Z,2.80
2019-02-23T09:07:36.047Z,2.80
2019-02-23T09:10:24.089Z,3.00
2019-02-23T09:13:12.233Z,3.00
2019-02-23T09:16:00.631Z,3.10
2019-02-23T09:18:48.823Z,3.10
2019-02-23T09:21:37.051Z,3.50
2019-02-23T09:24:25.414Z,3.70
2019-02-23T09:27:13.447Z,3.70
2019-02-23T09:30:01.604Z,3.50
2019-02-23T09:32:50.251Z,3.70
2019-02-23T09:35:38.547Z,3.80
2019-02-23T09:38:27.353Z,3.70
2019-02-23T09:41:15.280Z,3.90
2019-02-23T09:44:03.447Z,4.20
2019-02-23T09:46:51.873Z,4.30
2019-02-23T09:49:40.944Z,4.10
2019-02-23T09:52:29.306Z,4.20
2019-02-23T09:55:17.405Z,4.30
2019-02-23T09:58:06.501Z,4.40
2019-02-23T10:00:54.655Z,4.40
2019-02-23T10:03:42.878Z,4.50
2019-02-23T10:06:30.760Z,4.70
2019-02-23T10:09:18.982Z,4.70
2019-02-23T10:12:07.079Z,4.80
2019-02-23T10:14:55.470Z,4.80
2019-02-23T10:17:43.534Z,4.80
2019-02-23T10:20:31.414Z,4.70
2019-02-23T10:23:22.257Z,4.70
2019-02-23T10:26:09.982Z,4.80
2019-02-23T10:28:58.432Z,4.90
2019-02-23T10:31:46.486Z,4.80
2019-02-23T10:34:34.826Z,4.80
2019-02-23T10:37:22.969Z,5.00
2019-02-23T10:40:12.412Z,4.80
2019-02-23T10:43:00.786Z,4.90
2019-02-23T10:45:48.689Z,5.00
2019-02-23T10:48:38.193Z,5.30
2019-02-23T10:51:26.598Z,5.50
2019-02-23T10:54:14.698Z,5.70
2019-02-23T10:57:03.141Z,5.60
2019-02-23T10:59:51.701Z,5.90
2019-02-23T11:02:40.244Z,6.00
2019-02-23T11:05:28.407Z,5.60
2019-02-23T11:08:16.840Z,5.80
2019-02-23T11:11:05.759Z,6.20
2019-02-23T11:13:54.053Z,6.20
2019-02-23T11:16:42.757Z,6.10
2019-02-23T11:19:30.883Z,6.20
2019-02-23T11:22:19.132Z,6.50
2019-02-23T11:25:09.559Z,6.60
2019-02-23T11:27:57.814Z,6.80
2019-02-23T11:30:45.812Z,7.00
2019-02-23T11:33:34.424Z,7.20
2019-02-23T11:36:22.301Z,7.40
2019-02-23T11:39:11.322Z,7.40
2019-02-23T11:41:59.325Z,7.80
2019-02-23T11:44:47.312Z,8.20
2019-02-23T11:47:35.481Z,8.30
2019-02-23T11:50:24.401Z,8.30
2019-02-23T11:53:12.284Z,8.10
2019-02-23T11:56:00.448Z,8.20
2019-02-23T11:58:49.152Z,8.20
2019-02-23T12:01:37.543Z,8.30
2019-02-23T12:04:25.853Z,8.20
2019-02-23T12:07:14.119Z,8.00
2019-02-23T12:10:01.827Z,8.00
2019-02-23T12:12:49.942Z,7.90
2019-02-23T12:15:38.134Z,7.60
2019-02-23T12:18:26.248Z,7.80
2019-02-23T12:21:14.289Z,8.00
2019-02-23T12:24:05.944Z,8.00
2019-02-23T12:26:52.749Z,8.00
2019-02-23T12:29:40.871Z,8.30
2019-02-23T12:32:28.653Z,8.30
2019-02-23T12:35:16.646Z,8.20
2019-02-23T12:38:05.009Z,8.30
2019-02-23T12:40:54.269Z,8.20
2019-02-23T12:43:43.016Z,8.20
2019-02-23T12:46:31.355Z,8.20
2019-02-23T12:49:19.816Z,8.30
2019-02-23T12:52:07.881Z,8.40
2019-02-23T12:54:56.875Z,8.50
2019-02-23T12:57:46.161Z,8.60
2019-02-23T13:00:35.581Z,8.60
2019-02-23T13:03:25.029Z,8.70
2019-02-23T13:06:14.676Z,8.70
2019-02-23T13:09:25.750Z,8.50
2019-02-23T13:12:19.910Z,8.50
2019-02-23T13:15:23.288Z,8.50
2019-02-23T13:18:28.364Z,8.50
2019-02-23T13:21:45.126Z,8.30
2019-02-23T13:24:44.441Z,8.30
2019-02-23T13:27:59.303Z,8.30
2019-02-23T13:31:32.001Z,8.30
2019-02-23T13:34:50.972Z,8.30
2019-02-23T13:37:44.747Z,8.00
2019-02-23T13:40:41.679Z,7.80
2019-02-23T13:43:59.188Z,7.70
2019-02-23T13:47:11.007Z,7.60
2019-02-23T13:50:21.812Z,7.70
2019-02-23T13:53:21.495Z,7.70
2019-02-23T13:56:41.903Z,7.80
2019-02-23T13:59:47.088Z,7.80
2019-02-23T14:03:03.954Z,7.90
2019-02-23T14:06:25.559Z,8.00
2019-02-23T14:09:30.723Z,8.10
2019-02-23T14:12:30.338Z,8.20
2019-02-23T14:16:05.182Z,8.20
2019-02-23T14:19:07.346Z,8.10
2019-02-23T14:22:09.402Z,8.00
2019-02-23T14:25:31.457Z,7.90
2019-02-23T14:28:43.440Z,8.00
2019-02-23T14:32:04.159Z,8.00
2019-02-23T14:35:16.175Z,7.90
2019-02-23T14:38:09.436Z,7.90
2019-02-23T14:41:18.205Z,7.90
2019-02-23T14:44:23.912Z,7.80
2019-02-23T14:47:32.658Z,7.80
2019-02-23T14:50:50.063Z,7.70
2019-02-23T14:53:47.110Z,7.80
2019-02-23T14:57:20.100Z,7.80
2019-02-23T15:00:35.197Z,7.80
2019-02-23T15:04:11.550Z,7.70
2019-02-23T15:07:32.677Z,7.70
2019-02-23T15:10:50.173Z,7.80
2019-02-23T15:14:05.294Z,7.80
2019-02-23T15:17:33.382Z,7.80
2019-02-23T15:20:56.612Z,7.80
2019-02-23T15:24:08.324Z,7.70
2019-02-23T15:27:25.443Z,7.60
2019-02-23T15:30:36.835Z,7.60
2019-02-23T15:33:42.193Z,7.50
2019-02-23T15:36:38.910Z,7.50
2019-02-23T15:40:03.764Z,7.50
2019-02-23T15:43:24.990Z,7.50
2019-02-23T15:46:38.069Z,7.50
2019-02-23T15:49:32.268Z,7.40
2019-02-23T15:52:21.387Z,7.40
2019-02-23T15:55:10.596Z,7.30
2019-02-23T15:58:00.144Z,7.20
2019-02-23T16:00:49.920Z,7.10
2019-02-23T16:03:39.158Z,7.10
2019-02-23T16:06:31.515Z,7.00
2019-02-23T16:09:19.463Z,7.00
2019-02-23T16:12:08.698Z,7.00
2019-02-23T16:14:57.571Z,6.90
2019-02-23T16:17:47.307Z,6.90
2019-02-23T16:20:36.420Z,6.90
2019-02-23T16:23:36.775Z,6.90
2019-02-23T16:26:15.424Z,6.80
2019-02-23T16:29:04.273Z,6.70
2019-02-23T16:31:54.071Z,6.70
2019-02-23T16:34:43.461Z,6.60
2019-02-23T16:37:32.716Z,6.60
2019-02-23T16:40:21.625Z,6.60
2019-02-23T16:43:10.842Z,6.60
2019-02-23T16:45:59.943Z,6.50
2019-02-23T16:48:49.401Z,6.50
2019-02-23T16:51:38.848Z,6.40
2019-02-23T16:54:28.402Z,6.40
2019-02-23T16:57:17.729Z,6.40
2019-02-23T17:00:09.856Z,6.40
2019-02-23T17:02:59.202Z,6.40
2019-02-23T17:05:48.101Z,6.40
2019-02-23T17:08:37.644Z,6.30
2019-02-23T17:11:26.935Z,6.30
2019-02-23T17:14:16.102Z,6.30
2019-02-23T17:17:05.054Z,6.30
2019-02-23T17:19:54.238Z,6.20
2019-02-23T17:22:43.602Z,6.20
2019-02-23T17:25:32.669Z,6.10
2019-02-23T17:28:22.408Z,6.10
2019-02-23T17:31:11.850Z,6.00
2019-02-23T17:34:00.964Z,6.00
2019-02-23T17:36:50.134Z,6.00
2019-02-23T17:39:39.504Z,5.90
2019-02-23T17:42:29.255Z,5.90
2019-02-23T17:45:19.188Z,5.80
2019-02-23T17:48:08.743Z,5.70
2019-02-23T17:50:57.649Z,5.70
2019-02-23T17:53:46.673Z,5.70
2019-02-23T17:56:36.052Z,5.60
2019-02-23T17:59:25.215Z,5.50
2019-02-23T18:02:14.478Z,5.50
2019-02-23T18:05:03.816Z,5.50
2019-02-23T18:07:53.319Z,5.40
2019-02-23T18:10:42.553Z,5.40
2019-02-23T18:13:32.076Z,5.40
2019-02-23T18:16:20.618Z,5.40
2019-02-23T18:19:10.204Z,5.40
2019-02-23T18:21:59.412Z,5.40
2019-02-23T18:24:48.627Z,5.40
2019-02-23T18:27:37.696Z,5.40
2019-02-23T18:30:26.509Z,5.20
2019-02-23T18:33:15.927Z,5.20
2019-02-23T18:36:05.183Z,5.20
2019-02-23T18:38:54.778Z,5.20
2019-02-23T18:41:43.853Z,5.10
2019-02-23T18:44:33.615Z,5.00
2019-02-23T18:47:22.890Z,5.00
2019-02-23T18:50:11.352Z,4.90
2019-02-23T18:53:00.910Z,4.90
2019-02-23T18:55:49.981Z,4.90
2019-02-23T18:58:39.655Z,4.80
2019-02-23T19:01:28.707Z,4.80
2019-02-23T19:04:18.298Z,4.80
2019-02-23T19:07:07.143Z,4.80
2019-02-23T19:09:56.225Z,4.70
2019-02-23T19:12:45.696Z,4.60
2019-02-23T19:15:35.083Z,4.60
2019-02-23T19:18:24.539Z,4.60
2019-02-23T19:21:13.563Z,4.60
2019-02-23T19:24:02.168Z,4.70
2019-02-23T19:26:51.397Z,4.60
2019-02-23T19:29:41.219Z,4.60
2019-02-23T19:32:30.178Z,4.50
2019-02-23T19:35:19.039Z,4.50
2019-02-23T19:38:08.516Z,4.50
2019-02-23T19:40:57.893Z,4.50
2019-02-23T19:43:46.960Z,4.50
2019-02-23T19:46:39.910Z,4.50
2019-02-23T19:49:29.271Z,4.40
2019-02-23T19:52:18.426Z,4.50
2019-02-23T19:55:12.563Z,4.50
2019-02-23T19:58:01.898Z,4.60
2019-02-23T20:00:51.214Z,4.60
2019-02-23T20:03:40.532Z,4.60
2019-02-23T20:06:30.045Z,4.50
2019-02-23T20:09:19.074Z,4.40
2019-02-23T20:12:08.498Z,4.30
2019-02-23T20:14:57.815Z,4.30
2019-02-23T20:17:47.194Z,4.30
2019-02-23T20:20:36.353Z,4.20
2019-02-23T20:23:25.421Z,4.20
2019-02-23T20:26:16.399Z,4.10
2019-02-23T20:29:05.470Z,4.00
2019-02-23T20:31:54.739Z,3.90
2019-02-23T20:34:43.750Z,3.90
2019-02-23T20:37:32.463Z,3.80
2019-02-23T20:40:21.754Z,3.90
2019-02-23T20:43:10.415Z,3.90
2019-02-23T20:45:59.615Z,3.80
2019-02-23T20:48:48.792Z,3.80
2019-02-23T20:51:38.169Z,3.80
2019-02-23T20:54:26.788Z,3.80
2019-02-23T20:57:15.898Z,3.80
2019-02-23T21:00:08.284Z,3.90
2019-02-23T21:02:57.136Z,3.90
2019-02-23T21:05:46.410Z,3.80
2019-02-23T21:08:35.061Z,3.80
2019-02-23T21:11:24.015Z,3.80
2019-02-23T21:14:13.291Z,3.80
2019-02-23T21:17:02.544Z,3.80
2019-02-23T21:19:51.837Z,3.90
2019-02-23T21:22:40.900Z,3.80
2019-02-23T21:25:31.354Z,3.70
2019-02-23T21:28:20.969Z,3.70
2019-02-23T21:31:10.040Z,3.70
2019-02-23T21:33:59.305Z,3.70
2019-02-23T21:36:48.414Z,3.70
2019-02-23T21:39:38.146Z,3.70
2019-02-23T21:42:26.977Z,3.70
2019-02-23T21:45:16.073Z,3.70
2019-02-23T21:48:05.216Z,3.70
2019-02-23T21:50:54.723Z,3.70
2019-02-23T21:53:43.680Z,3.60
2019-02-23T21:56:33.316Z,3.60
2019-02-23T21:59:22.735Z,3.50
2019-02-23T22:02:11.733Z,3.50
2019-02-23T22:05:00.890Z,3.50
2019-02-23T22:07:50.165Z,3.50
2019-02-23T22:10:39.705Z,3.50
2019-02-23T22:13:29.000Z,3.40
2019-02-23T22:16:18.048Z,3.40
2019-02-23T22:19:07.184Z,3.40
2019-02-23T22:21:56.519Z,3.40
2019-02-23T22:24:45.744Z,3.40
2019-02-23T22:27:34.708Z,3.40
2019-02-23T22:30:24.179Z,3.30
2019-02-23T22:33:12.891Z,3.30
2019-02-23T22:36:02.021Z,3.30
2019-02-23T22:38:51.187Z,3.30
2019-02-23T22:41:39.631Z,3.30
2019-02-23T22:44:28.687Z,3.20
2019-02-23T22:47:17.815Z,3.20
2019-02-23T22:50:09.379Z,3.20
2019-02-23T22:52:58.093Z,3.20
2019-02-23T22:55:47.092Z,3.20
2019-02-23T22:58:36.255Z,3.30
2019-02-23T23:01:25.630Z,3.20
2019-02-23T23:04:16.948Z,3.20
2019-02-23T23:07:05.826Z,3.20
2019-02-23T23:09:54.876Z,3.10
2019-02-23T23:12:43.895Z,3.20
2019-02-23T23:15:33.260Z,3.20
2019-02-23T23:18:22.899Z,3.10
2019-02-23T23:21:12.489Z,3.10
2019-02-23T23:24:01.079Z,3.10
2019-02-23T23:26:49.987Z,3.10
2019-02-23T23:29:38.431Z,3.00
2019-02-23T23:32:28.324Z,3.00
2019-02-23T23:35:17.697Z,3.00
2019-02-23T23:38:07.162Z,2.90
2019-02-23T23:40:55.796Z,2.90
2019-02-23T23:43:45.191Z,3.00
2019-02-23T23:46:34.511Z,3.00
2019-02-23T23:49:23.930Z,3.00
2019-02-23T23:52:13.233Z,2.90
2019-02-23T23:55:02.879Z,2.80
2019-02-23T23:57:57.987Z,2.80
